Time;durP1;ratioP1;P1;durP2;ratioP2;P2;SDS_P1;SDS_P2;PMS_P1;PMS_P2;Temp;Humidity;BMP_temperature;BMP_pressure;BME280_temperature;BME280_humidity;BME280_pressure;Samples;Min_cycle;Max_cycle;Signal;HPM_P1;HPM_P2
2021/12/16 00:09:12;;;;;;;112.07;30.83;;;9.30;99.90;;;;;;5102261;28;20687;-81
2021/12/16 00:20:23;;;;;;;106.13;30.73;;;9.20;99.90;;;;;;5101845;28;20218;-81
2021/12/16 00:31:18;;;;;;;107.87;30.67;;;9.20;99.90;;;;;;5107261;28;20206;-79
2021/12/16 00:33:57;;;;;;;103.20;29.63;;;9.10;99.90;;;;;;5102351;28;20264;-80
2021/12/16 00:36:26;;;;;;;108.03;31.03;;;9.10;99.90;;;;;;5088788;28;20201;-81
2021/12/16 00:38:53;;;;;;;113.57;32.17;;;9.00;99.90;;;;;;5100751;28;20292;-79
2021/12/16 00:41:20;;;;;;;110.83;31.00;;;9.10;99.90;;;;;;5106496;28;20313;-81
2021/12/16 00:43:54;;;;;;;116.43;31.53;;;9.00;99.90;;;;;;5116571;28;20287;-80
2021/12/16 00:49:35;;;;;;;114.07;29.87;;;9.00;99.90;;;;;;5120562;28;20216;-81
2021/12/16 00:55:00;;;;;;;117.23;32.63;;;9.00;99.90;;;;;;5129402;28;20210;-81
2021/12/16 00:57:26;;;;;;;119.87;33.57;;;9.00;99.90;;;;;;5099652;28;20316;-80
2021/12/16 00:59:55;;;;;;;117.63;31.53;;;9.00;99.90;;;;;;5096810;28;20230;-80
2021/12/16 01:36:34;;;;;;;114.73;30.13;;;8.90;99.90;;;;;;5089829;28;20296;-81
2021/12/16 01:39:14;;;;;;;117.73;30.77;;;8.80;99.90;;;;;;5084970;28;20210;-80
2021/12/16 01:49:36;;;;;;;108.27;32.50;;;8.80;99.90;;;;;;5081303;28;20289;-81
2021/12/16 01:52:38;;;;;;;100.77;29.07;;;8.80;99.90;;;;;;5080079;28;20208;-80
2021/12/16 01:55:09;;;;;;;120.33;31.17;;;8.80;99.90;;;;;;5086350;28;20297;-81
2021/12/16 01:57:45;;;;;;;115.93;31.27;;;8.80;99.90;;;;;;5098067;28;20243;-81
2021/12/16 02:00:26;;;;;;;115.97;30.60;;;8.80;99.90;;;;;;5104121;28;20259;-81
2021/12/16 02:03:01;;;;;;;96.60;28.87;;;8.80;99.90;;;;;;5098089;28;20234;-81
2021/12/16 02:08:25;;;;;;;104.07;27.87;;;8.80;99.90;;;;;;5095903;28;20364;-81
2021/12/16 02:11:11;;;;;;;115.80;30.10;;;8.70;99.90;;;;;;5084087;28;20987;-81
2021/12/16 02:33:33;;;;;;;115.60;30.73;;;8.50;99.90;;;;;;5110453;28;20294;-80
2021/12/16 02:36:13;;;;;;;106.63;29.63;;;8.40;99.90;;;;;;5106424;28;20652;-80
2021/12/16 02:38:46;;;;;;;115.37;30.37;;;8.40;99.90;;;;;;5091587;28;20258;-82
2021/12/16 02:41:14;;;;;;;105.67;28.73;;;8.40;99.90;;;;;;5121413;28;20212;-80
2021/12/16 02:44:06;;;;;;;109.37;28.43;;;8.40;99.90;;;;;;5104647;28;20240;-80
2021/12/16 02:49:19;;;;;;;109.17;29.10;;;8.40;99.90;;;;;;5098864;28;20280;-80
2021/12/16 02:51:47;;;;;;;116.53;30.30;;;8.40;99.90;;;;;;5107069;28;20232;-80
2021/12/16 02:54:15;;;;;;;113.83;30.33;;;8.40;99.90;;;;;;5088361;28;20322;-81
2021/12/16 02:56:42;;;;;;;101.17;30.63;;;8.40;99.90;;;;;;5102604;28;20291;-81
2021/12/16 02:59:09;;;;;;;100.43;28.87;;;8.40;99.90;;;;;;5101601;28;20203;-80
2021/12/16 03:01:46;;;;;;;100.10;27.83;;;8.30;99.90;;;;;;5097144;28;20743;-80
2021/12/16 03:04:15;;;;;;;101.53;26.87;;;8.30;99.90;;;;;;5082077;28;20215;-81
2021/12/16 03:06:51;;;;;;;112.33;30.33;;;8.30;99.90;;;;;;5105095;28;20766;-80
2021/12/16 03:09:31;;;;;;;120.77;31.73;;;8.20;99.90;;;;;;5084798;28;20230;-80
2021/12/16 03:14:49;;;;;;;119.87;30.87;;;8.20;99.90;;;;;;5103833;28;20236;-80
2021/12/16 03:17:24;;;;;;;119.00;29.57;;;8.20;99.90;;;;;;5101313;28;20342;-80
2021/12/16 03:22:39;;;;;;;105.73;28.30;;;8.20;99.90;;;;;;5101896;28;20234;-80
2021/12/16 03:28:19;;;;;;;113.47;28.17;;;8.10;99.90;;;;;;5109749;28;20231;-81
2021/12/16 03:33:44;;;;;;;111.70;29.53;;;8.10;99.90;;;;;;5111043;28;20267;-80
2021/12/16 03:36:15;;;;;;;113.37;27.93;;;8.10;99.90;;;;;;5097221;28;20272;-80
2021/12/16 03:38:46;;;;;;;120.20;28.83;;;8.10;99.90;;;;;;5104495;28;20323;-80
2021/12/16 03:41:13;;;;;;;104.43;28.53;;;8.10;99.90;;;;;;5105230;28;20211;-81
2021/12/16 03:43:40;;;;;;;113.13;29.83;;;8.10;99.90;;;;;;5099018;28;20250;-81
2021/12/16 03:48:46;;;;;;;109.10;29.17;;;8.00;99.90;;;;;;5101119;28;20305;-80
2021/12/16 03:51:17;;;;;;;100.80;27.87;;;8.00;99.90;;;;;;5104137;28;20278;-81
2021/12/16 03:53:48;;;;;;;111.17;29.50;;;8.00;99.90;;;;;;5100188;28;20202;-81
2021/12/16 03:56:19;;;;;;;119.87;30.33;;;8.00;99.90;;;;;;5097187;28;20228;-80
2021/12/16 03:58:47;;;;;;;111.07;29.30;;;8.00;99.90;;;;;;5102780;28;20290;-80
2021/12/16 04:01:20;;;;;;;114.20;28.50;;;8.00;99.90;;;;;;5102634;28;20199;-82
2021/12/16 04:03:49;;;;;;;125.93;30.97;;;8.00;99.90;;;;;;5102067;28;20787;-81
2021/12/16 04:06:19;;;;;;;135.33;28.93;;;8.00;99.90;;;;;;5100151;28;20246;-80
2021/12/16 04:08:46;;;;;;;126.10;31.03;;;8.10;99.90;;;;;;5100091;28;20195;-80
2021/12/16 04:11:21;;;;;;;121.10;31.07;;;8.10;99.90;;;;;;5083708;28;20203;-80
2021/12/16 04:13:57;;;;;;;122.83;31.20;;;8.20;99.90;;;;;;5090943;28;20284;-80
2021/12/16 04:16:34;;;;;;;136.50;33.47;;;8.20;99.90;;;;;;5094997;28;20334;-80
2021/12/16 04:19:13;;;;;;;125.00;31.80;;;8.30;99.90;;;;;;5095410;28;20308;-81
2021/12/16 04:21:53;;;;;;;118.63;31.00;;;8.30;99.90;;;;;;5098233;28;20758;-80
2021/12/16 04:24:21;;;;;;;125.67;30.40;;;8.30;99.90;;;;;;5075544;28;20213;-80
2021/12/16 04:26:50;;;;;;;127.47;30.37;;;8.30;99.90;;;;;;5097871;28;20223;-78
2021/12/16 04:29:18;;;;;;;125.30;29.30;;;8.40;99.90;;;;;;5096407;28;20251;-80
2021/12/16 04:31:45;;;;;;;133.77;30.80;;;8.40;99.90;;;;;;5081621;28;20208;-80
2021/12/16 04:34:14;;;;;;;124.67;29.60;;;8.40;99.90;;;;;;5098608;28;20221;-81
2021/12/16 04:36:42;;;;;;;119.50;28.03;;;8.40;99.90;;;;;;5098921;28;20300;-80
2021/12/16 04:39:20;;;;;;;127.13;30.33;;;8.40;99.90;;;;;;5103244;28;20209;-80
2021/12/16 04:41:47;;;;;;;128.33;30.00;;;8.40;99.90;;;;;;5102744;28;20208;-79
2021/12/16 04:44:16;;;;;;;136.47;30.03;;;8.40;99.90;;;;;;5105260;28;20242;-80
2021/12/16 04:46:43;;;;;;;141.50;29.93;;;8.40;99.90;;;;;;5106907;28;20252;-79
2021/12/16 04:49:11;;;;;;;128.43;28.80;;;8.40;99.90;;;;;;5076271;28;20218;-81
2021/12/16 04:51:42;;;;;;;121.50;29.67;;;8.40;99.90;;;;;;5085741;28;20651;-81
2021/12/16 04:54:10;;;;;;;115.43;27.90;;;8.50;99.90;;;;;;5081813;28;20212;-80
2021/12/16 04:56:39;;;;;;;127.77;29.07;;;8.50;99.90;;;;;;5103060;28;20388;-82
2021/12/16 04:59:10;;;;;;;148.37;28.43;;;8.50;99.90;;;;;;5107173;28;20288;-80
2021/12/16 05:01:40;;;;;;;137.83;28.17;;;8.50;99.90;;;;;;5097473;28;20232;-81
2021/12/16 05:04:07;;;;;;;135.87;29.87;;;8.50;99.90;;;;;;5107740;28;20759;-80
2021/12/16 05:06:34;;;;;;;128.70;28.23;;;8.50;99.90;;;;;;5097377;28;20298;-80
2021/12/16 05:09:07;;;;;;;115.00;28.97;;;8.50;99.90;;;;;;5087432;28;20214;-79
2021/12/16 05:11:36;;;;;;;127.80;27.57;;;8.50;99.90;;;;;;5102786;28;20256;-80
2021/12/16 05:14:05;;;;;;;158.93;30.30;;;8.50;99.90;;;;;;5104068;28;20304;-81
2021/12/16 05:16:32;;;;;;;149.77;30.97;;;8.50;99.90;;;;;;5104150;28;20449;-81
2021/12/16 05:19:01;;;;;;;159.87;31.27;;;8.50;99.90;;;;;;5099815;28;20250;-81
2021/12/16 05:21:53;;;;;;;156.23;31.17;;;8.50;99.90;;;;;;5109473;28;20207;-79
2021/12/16 05:24:26;;;;;;;137.50;28.63;;;8.40;99.90;;;;;;5100966;28;20202;-80
2021/12/16 05:26:56;;;;;;;159.93;30.17;;;8.40;99.90;;;;;;5101333;28;20241;-80
2021/12/16 05:29:24;;;;;;;150.57;28.80;;;8.50;99.90;;;;;;5108339;28;20286;-80
2021/12/16 05:31:53;;;;;;;142.80;29.93;;;8.50;99.90;;;;;;5100377;28;20285;-81
2021/12/16 05:34:23;;;;;;;153.90;29.10;;;8.50;99.90;;;;;;5098131;28;20314;-81
2021/12/16 05:36:51;;;;;;;150.17;29.17;;;8.60;99.90;;;;;;5100196;28;20253;-81
2021/12/16 05:39:18;;;;;;;141.97;29.03;;;8.60;99.90;;;;;;5099956;28;20721;-81
2021/12/16 05:41:45;;;;;;;153.40;29.23;;;8.60;99.90;;;;;;5092602;28;20210;-82
2021/12/16 05:44:12;;;;;;;137.47;29.90;;;8.60;99.90;;;;;;5098980;28;20210;-81
2021/12/16 05:46:39;;;;;;;171.93;29.87;;;8.60;99.90;;;;;;5102746;28;20308;-81
2021/12/16 05:49:09;;;;;;;131.80;30.20;;;8.60;99.90;;;;;;5110945;28;20251;-81
2021/12/16 05:51:38;;;;;;;142.43;29.97;;;8.60;99.90;;;;;;5110863;28;20211;-82
2021/12/16 05:54:07;;;;;;;150.23;29.47;;;8.60;99.90;;;;;;5080713;28;20202;-82
2021/12/16 05:56:35;;;;;;;139.40;28.33;;;8.70;99.90;;;;;;5109640;28;20333;-81
2021/12/16 05:59:04;;;;;;;144.77;29.50;;;8.70;99.90;;;;;;5109775;28;20210;-81
2021/12/16 06:01:34;;;;;;;149.37;29.40;;;8.70;99.90;;;;;;5090200;28;20211;-81
2021/12/16 06:04:06;;;;;;;130.97;29.20;;;8.70;99.90;;;;;;5100058;28;20241;-81
2021/12/16 06:06:33;;;;;;;149.00;28.50;;;8.70;99.90;;;;;;5103021;28;20206;-81
2021/12/16 06:09:02;;;;;;;159.70;29.23;;;8.80;99.90;;;;;;5102803;28;20348;-80
2021/12/16 06:11:31;;;;;;;160.03;28.77;;;8.80;99.90;;;;;;5100689;28;20557;-81
2021/12/16 06:28:07;;;;;;;174.10;30.63;;;8.70;99.90;;;;;;5097993;28;20210;-81
2021/12/16 06:30:41;;;;;;;210.57;31.07;;;8.80;99.90;;;;;;5100995;28;20294;-81
2021/12/16 06:33:13;;;;;;;159.17;31.43;;;8.80;99.90;;;;;;5080257;28;20222;-81
2021/12/16 06:35:40;;;;;;;140.40;30.83;;;8.80;99.90;;;;;;5099863;28;20255;-81
2021/12/16 06:38:07;;;;;;;215.20;34.20;;;8.90;99.90;;;;;;5103524;28;20294;-81
2021/12/16 06:40:34;;;;;;;200.17;33.63;;;8.90;99.90;;;;;;5105898;28;20761;-81
2021/12/16 06:43:06;;;;;;;192.53;33.03;;;8.90;99.90;;;;;;5124125;28;20664;-80
2021/12/16 06:45:37;;;;;;;225.43;32.23;;;8.90;99.90;;;;;;5124951;28;20205;-80
2021/12/16 06:48:11;;;;;;;158.07;31.07;;;8.90;99.90;;;;;;5122695;28;20220;-81
2021/12/16 06:50:49;;;;;;;223.00;32.00;;;8.90;99.90;;;;;;5103735;28;20228;-79
2021/12/16 06:53:31;;;;;;;161.47;29.37;;;8.90;99.90;;;;;;5092255;28;20292;-82
2021/12/16 06:56:10;;;;;;;129.90;28.97;;;8.90;99.90;;;;;;5097645;28;20225;-77
2021/12/16 07:01:19;;;;;;;232.03;30.63;;;9.00;99.90;;;;;;5089581;28;20861;-81
2021/12/16 07:03:49;;;;;;;180.00;29.83;;;9.00;99.90;;;;;;5080467;28;20211;-80
2021/12/16 07:06:23;;;;;;;202.07;29.47;;;9.00;99.90;;;;;;5083899;28;20226;-80
2021/12/16 07:08:54;;;;;;;202.07;30.10;;;9.00;99.90;;;;;;5080062;28;20253;-81
2021/12/16 07:11:26;;;;;;;141.40;28.23;;;8.90;99.90;;;;;;5077872;28;20354;-81
2021/12/16 07:13:59;;;;;;;151.67;27.23;;;9.00;99.90;;;;;;5086527;28;20203;-79
2021/12/16 07:16:30;;;;;;;224.00;29.53;;;8.90;99.90;;;;;;5082535;28;20220;-79
2021/12/16 07:18:58;;;;;;;175.77;28.70;;;9.00;99.90;;;;;;5077227;28;20214;-75
2021/12/16 07:21:25;;;;;;;133.50;25.17;;;9.00;99.90;;;;;;5082178;28;20263;-77
2021/12/16 07:23:52;;;;;;;200.33;28.67;;;9.00;99.90;;;;;;5075264;28;20289;-77
2021/12/16 07:26:19;;;;;;;255.57;29.23;;;9.00;99.90;;;;;;5072872;28;20285;-76
2021/12/16 07:28:46;;;;;;;213.03;29.60;;;9.00;99.90;;;;;;5077296;28;20260;-78
2021/12/16 07:31:13;;;;;;;213.97;28.60;;;9.00;99.90;;;;;;5081190;28;20313;-79
2021/12/16 07:33:40;;;;;;;156.90;26.07;;;9.00;99.90;;;;;;5081142;28;20250;-78
2021/12/16 07:36:06;;;;;;;186.50;27.13;;;9.00;99.90;;;;;;5080535;28;20254;-79
2021/12/16 07:38:34;;;;;;;189.43;25.87;;;9.00;99.90;;;;;;5077597;28;20663;-78
2021/12/16 07:41:02;;;;;;;180.93;26.17;;;8.90;99.90;;;;;;5079363;28;20203;-79
2021/12/16 07:43:55;;;;;;;224.93;27.60;;;9.00;99.90;;;;;;5078354;28;20206;-78
2021/12/16 07:46:30;;;;;;;131.37;22.97;;;9.00;99.90;;;;;;5078945;28;20559;-79
2021/12/16 07:48:57;;;;;;;135.93;23.33;;;8.90;99.90;;;;;;5073786;28;20212;-78
2021/12/16 07:51:25;;;;;;;209.27;24.77;;;8.90;99.90;;;;;;5078908;28;20230;-78
2021/12/16 07:53:52;;;;;;;177.47;23.30;;;8.90;99.90;;;;;;5076401;28;20707;-77
2021/12/16 07:56:19;;;;;;;186.07;25.80;;;9.00;99.90;;;;;;5087764;28;20246;-78
2021/12/16 07:58:46;;;;;;;232.27;28.40;;;9.00;99.90;;;;;;5100861;28;20655;-77
2021/12/16 08:01:14;;;;;;;108.17;22.03;;;9.00;99.90;;;;;;5097032;28;20295;-77
2021/12/16 08:03:42;;;;;;;184.03;25.60;;;9.00;99.90;;;;;;5103497;28;20245;-77
2021/12/16 08:06:18;;;;;;;174.67;24.30;;;9.00;99.90;;;;;;5102723;28;20571;-77
2021/12/16 08:08:45;;;;;;;138.17;24.40;;;9.10;99.90;;;;;;5104542;28;20308;-77
2021/12/16 08:11:12;;;;;;;161.77;24.10;;;9.00;99.90;;;;;;5082624;28;20261;-78
2021/12/16 08:13:39;;;;;;;205.63;27.87;;;9.10;99.90;;;;;;5099979;28;20202;-77
2021/12/16 08:16:06;;;;;;;131.90;23.30;;;9.00;99.90;;;;;;5098083;28;20597;-77
2021/12/16 08:18:33;;;;;;;159.97;24.40;;;9.00;99.90;;;;;;5100350;28;20210;-79
2021/12/16 08:21:00;;;;;;;171.90;25.07;;;9.00;99.90;;;;;;5106074;28;20286;-77
2021/12/16 08:23:27;;;;;;;152.47;25.23;;;9.00;99.90;;;;;;5106566;28;20208;-77
2021/12/16 08:25:54;;;;;;;208.43;26.33;;;9.10;99.90;;;;;;5095521;28;20550;-77
2021/12/16 08:28:22;;;;;;;162.50;23.30;;;9.10;99.90;;;;;;5089817;28;20288;-78
2021/12/16 08:30:50;;;;;;;176.90;24.80;;;9.10;99.90;;;;;;5102639;28;20233;-78
2021/12/16 08:33:18;;;;;;;173.43;25.43;;;9.10;99.90;;;;;;5101841;28;20766;-77
2021/12/16 08:35:49;;;;;;;184.27;25.60;;;9.10;99.90;;;;;;5106876;28;20206;-76
2021/12/16 08:38:18;;;;;;;164.83;24.17;;;9.00;99.90;;;;;;5099436;28;20199;-78
2021/12/16 08:40:47;;;;;;;170.43;25.53;;;9.00;99.90;;;;;;5083472;28;20288;-77
2021/12/16 08:43:14;;;;;;;150.47;25.20;;;9.00;99.90;;;;;;5082723;28;20294;-78
2021/12/16 08:45:42;;;;;;;185.50;26.47;;;8.90;99.90;;;;;;5099279;28;20290;-78
2021/12/16 08:48:10;;;;;;;134.20;25.03;;;9.00;99.90;;;;;;5108020;28;20230;-78
2021/12/16 08:50:42;;;;;;;185.67;25.27;;;9.00;99.90;;;;;;5084800;28;20785;-76
2021/12/16 08:53:09;;;;;;;152.83;24.00;;;9.00;99.90;;;;;;5099138;28;20214;-76
2021/12/16 08:55:38;;;;;;;199.50;26.70;;;9.10;99.90;;;;;;5106925;28;20245;-76
2021/12/16 08:58:05;;;;;;;174.57;26.10;;;9.10;99.90;;;;;;5100968;28;20222;-76
2021/12/16 09:01:16;;;;;;;208.07;26.90;;;9.10;99.90;;;;;;5102996;28;20199;-75
2021/12/16 09:03:44;;;;;;;179.63;25.13;;;9.10;99.90;;;;;;5091586;28;20234;-76
2021/12/16 09:06:12;;;;;;;172.60;26.87;;;9.10;99.90;;;;;;5085928;28;20210;-76
2021/12/16 09:08:40;;;;;;;183.53;27.80;;;9.20;99.90;;;;;;5093510;28;20287;-75
2021/12/16 09:11:09;;;;;;;162.07;26.83;;;9.20;99.90;;;;;;5082017;28;20242;-75
2021/12/16 09:13:41;;;;;;;191.63;27.90;;;9.20;99.90;;;;;;5085126;28;20210;-75
2021/12/16 09:16:13;;;;;;;145.47;25.50;;;9.30;99.90;;;;;;5089763;28;20198;-76
2021/12/16 09:18:42;;;;;;;143.47;24.43;;;9.40;99.90;;;;;;5104671;28;20214;-77
2021/12/16 09:21:12;;;;;;;145.27;25.73;;;9.40;99.90;;;;;;5101610;28;20224;-76
2021/12/16 09:23:41;;;;;;;177.23;25.20;;;9.40;99.90;;;;;;5105063;28;20206;-77
2021/12/16 09:26:08;;;;;;;141.37;24.30;;;9.50;99.90;;;;;;5099305;28;20572;-75
2021/12/16 09:28:36;;;;;;;171.17;26.97;;;9.50;99.90;;;;;;5104757;28;20200;-74
2021/12/16 09:31:09;;;;;;;145.33;24.17;;;9.50;99.90;;;;;;5084006;28;20318;-76
2021/12/16 09:33:41;;;;;;;147.47;25.53;;;9.70;99.90;;;;;;5100775;28;20542;-75
2021/12/16 09:36:10;;;;;;;127.87;23.97;;;9.60;99.90;;;;;;5097596;28;20207;-76
2021/12/16 09:38:38;;;;;;;114.77;22.93;;;9.70;99.90;;;;;;5102328;28;20348;-76
2021/12/16 09:41:05;;;;;;;148.63;24.47;;;9.70;99.90;;;;;;5098154;28;20203;-78
2021/12/16 09:43:34;;;;;;;118.27;22.07;;;9.80;99.90;;;;;;5103398;28;20251;-79
2021/12/16 09:46:05;;;;;;;125.30;21.07;;;9.80;99.90;;;;;;5099899;28;20264;-76
2021/12/16 09:48:33;;;;;;;100.73;21.17;;;9.80;99.90;;;;;;5080756;28;20258;-77
2021/12/16 09:51:05;;;;;;;89.60;21.13;;;9.80;99.90;;;;;;5098837;28;20275;-76
2021/12/16 09:53:36;;;;;;;118.20;23.03;;;9.80;99.90;;;;;;5102181;28;20286;-76
2021/12/16 09:56:09;;;;;;;115.83;22.50;;;9.80;99.90;;;;;;5078879;28;20246;-77
2021/12/16 09:58:42;;;;;;;101.27;23.37;;;9.80;99.90;;;;;;5078708;28;20530;-77
2021/12/16 10:01:12;;;;;;;124.97;23.93;;;9.80;99.90;;;;;;5081495;28;20723;-77
2021/12/16 10:03:42;;;;;;;93.13;21.37;;;9.90;99.90;;;;;;5083907;28;20223;-76
2021/12/16 10:06:10;;;;;;;97.57;22.10;;;9.90;99.90;;;;;;5084907;28;20312;-75
2021/12/16 10:08:37;;;;;;;88.23;20.70;;;10.00;99.90;;;;;;5084785;28;20207;-78
2021/12/16 10:11:05;;;;;;;83.97;19.63;;;10.10;99.90;;;;;;5078571;28;20248;-77
2021/12/16 10:13:58;;;;;;;88.00;20.70;;;10.10;99.90;;;;;;5081753;28;20210;-77
2021/12/16 10:19:14;;;;;;;75.00;19.70;;;10.10;99.90;;;;;;5080399;28;20215;-80
2021/12/16 10:21:42;;;;;;;83.50;19.37;;;10.10;99.90;;;;;;5076329;28;20209;-79
2021/12/16 10:24:25;;;;;;;69.73;19.60;;;10.10;99.90;;;;;;5075224;28;20204;-80
2021/12/16 10:27:18;;;;;;;79.27;20.17;;;10.10;99.90;;;;;;5080795;28;20274;-79
2021/12/16 10:29:47;;;;;;;74.70;20.40;;;10.10;99.90;;;;;;5083465;28;20227;-80
2021/12/16 10:32:39;;;;;;;69.87;19.97;;;9.90;99.90;;;;;;5084252;28;20235;-78
2021/12/16 10:35:27;;;;;;;73.13;19.57;;;9.90;99.90;;;;;;5083774;28;20615;-79
2021/12/16 10:38:01;;;;;;;73.50;20.00;;;9.90;99.90;;;;;;5079007;28;20816;-77
2021/12/16 10:40:37;;;;;;;65.53;20.13;;;9.90;99.90;;;;;;5080421;28;20198;-80
2021/12/16 10:43:12;;;;;;;71.93;19.47;;;10.00;99.90;;;;;;5079015;28;20254;-80
2021/12/16 10:46:13;;;;;;;69.43;20.93;;;10.00;99.90;;;;;;5082467;28;20232;-81
2021/12/16 10:48:45;;;;;;;77.67;21.00;;;10.10;99.90;;;;;;5074128;28;20208;-79
2021/12/16 10:51:18;;;;;;;75.07;21.67;;;10.10;99.90;;;;;;5076044;28;20318;-82
2021/12/16 10:53:57;;;;;;;71.73;21.73;;;10.20;99.90;;;;;;5080249;28;20220;-80
2021/12/16 10:56:37;;;;;;;66.97;22.90;;;10.20;99.90;;;;;;5085939;28;20573;-81
2021/12/16 10:59:10;;;;;;;76.67;22.57;;;10.20;99.90;;;;;;5094549;28;20223;-81
2021/12/16 11:01:46;;;;;;;72.10;21.83;;;10.30;99.90;;;;;;5089736;28;20672;-79
2021/12/16 11:04:21;;;;;;;65.27;21.40;;;10.40;99.90;;;;;;5083213;28;20336;-80
2021/12/16 11:06:56;;;;;;;71.43;21.63;;;10.40;99.90;;;;;;5075150;28;20203;-80
2021/12/16 11:09:34;;;;;;;59.67;21.23;;;10.40;99.90;;;;;;5078146;28;20284;-80
2021/12/16 11:12:07;;;;;;;65.40;21.50;;;10.40;99.90;;;;;;5082567;28;20226;-82
2021/12/16 11:14:36;;;;;;;60.10;20.17;;;10.40;99.90;;;;;;5082509;28;20235;-80
2021/12/16 11:17:06;;;;;;;62.63;20.93;;;10.50;99.90;;;;;;5077029;28;20302;-77
2021/12/16 11:19:59;;;;;;;61.93;20.90;;;10.50;99.90;;;;;;5078958;28;20565;-79
2021/12/16 11:22:32;;;;;;;55.67;20.10;;;10.60;99.90;;;;;;5080160;28;20197;-80
2021/12/16 11:25:23;;;;;;;49.40;20.47;;;10.50;99.90;;;;;;5086003;28;20296;-80
2021/12/16 11:28:05;;;;;;;57.97;20.10;;;10.50;99.90;;;;;;5074921;28;20533;-78
2021/12/16 11:30:51;;;;;;;48.30;19.53;;;10.50;99.90;;;;;;5079100;28;20283;-79
2021/12/16 11:33:23;;;;;;;56.70;19.23;;;10.50;99.90;;;;;;5080691;28;20231;-79
2021/12/16 11:36:00;;;;;;;45.37;18.70;;;10.50;99.90;;;;;;5073565;28;20245;-80
2021/12/16 11:38:26;;;;;;;51.37;19.43;;;10.50;99.90;;;;;;5084391;28;20291;-80
2021/12/16 11:40:58;;;;;;;50.13;18.60;;;10.50;99.90;;;;;;5078545;28;20199;-78
2021/12/16 11:43:42;;;;;;;44.00;19.60;;;10.50;99.90;;;;;;5077522;28;20220;-80
2021/12/16 11:46:25;;;;;;;47.87;19.53;;;10.50;99.90;;;;;;5077965;28;20192;-80
2021/12/16 11:49:37;;;;;;;43.40;19.60;;;10.50;99.90;;;;;;5075961;28;20803;-80
2021/12/16 11:52:17;;;;;;;48.53;19.10;;;10.60;99.90;;;;;;5082304;28;20223;-82
2021/12/16 11:54:47;;;;;;;45.87;19.53;;;10.70;99.90;;;;;;5085298;28;20241;-81
2021/12/16 11:57:20;;;;;;;43.37;18.17;;;10.70;99.90;;;;;;5097498;28;20588;-80
2021/12/16 11:59:58;;;;;;;39.67;18.10;;;10.80;99.90;;;;;;5101481;28;20199;-80
2021/12/16 12:02:32;;;;;;;41.70;18.87;;;10.80;99.90;;;;;;5107093;28;20214;-80
2021/12/16 12:05:31;;;;;;;44.57;19.07;;;10.80;99.90;;;;;;5107648;28;20293;-78
2021/12/16 12:08:06;;;;;;;42.97;19.00;;;10.90;99.90;;;;;;5091948;28;20624;-80
2021/12/16 12:11:00;;;;;;;39.23;18.07;;;11.00;99.90;;;;;;5105477;28;20226;-81
2021/12/16 12:13:40;;;;;;;39.97;18.17;;;11.00;99.90;;;;;;5106274;28;20217;-79
2021/12/16 12:16:19;;;;;;;40.93;18.13;;;11.10;99.90;;;;;;5102380;28;20293;-80
2021/12/16 12:18:58;;;;;;;33.20;17.57;;;11.20;99.90;;;;;;5105480;28;20225;-80
2021/12/16 12:21:45;;;;;;;36.70;17.97;;;11.10;99.90;;;;;;5089563;28;20226;-79
2021/12/16 12:24:32;;;;;;;41.30;18.90;;;11.20;99.90;;;;;;5105890;28;20227;-79
2021/12/16 12:27:09;;;;;;;40.60;17.70;;;11.20;99.90;;;;;;5082385;28;20252;-79
2021/12/16 12:29:37;;;;;;;38.30;17.50;;;11.20;99.90;;;;;;5098157;28;20258;-80
2021/12/16 12:32:06;;;;;;;35.43;16.67;;;11.10;99.90;;;;;;5092146;28;20228;-80
2021/12/16 12:34:35;;;;;;;31.97;16.53;;;11.10;99.90;;;;;;5115539;28;20668;-80
2021/12/16 12:37:06;;;;;;;36.43;16.90;;;11.10;99.90;;;;;;5112071;28;20260;-78
2021/12/16 12:39:38;;;;;;;32.33;16.60;;;11.20;99.90;;;;;;5095806;28;20201;-79
2021/12/16 12:42:06;;;;;;;32.50;15.93;;;11.20;99.90;;;;;;5115889;28;20202;-81
2021/12/16 12:44:34;;;;;;;35.00;16.93;;;11.30;99.90;;;;;;5125721;28;20226;-79
2021/12/16 12:47:05;;;;;;;35.63;16.77;;;11.30;99.90;;;;;;5118287;28;20207;-81
2021/12/16 12:49:32;;;;;;;36.80;15.80;;;11.30;99.90;;;;;;5098299;28;20217;-78
2021/12/16 12:52:10;;;;;;;31.50;16.10;;;11.30;99.90;;;;;;5111248;28;20226;-82
2021/12/16 12:54:42;;;;;;;33.83;17.07;;;11.40;99.90;;;;;;5095948;28;20616;-80
2021/12/16 12:57:18;;;;;;;32.97;15.97;;;11.40;99.90;;;;;;5117673;28;20254;-80
2021/12/16 12:59:45;;;;;;;28.33;16.00;;;11.50;99.90;;;;;;5125288;28;20191;-80
2021/12/16 13:02:24;;;;;;;35.17;17.10;;;11.50;99.90;;;;;;5123067;28;20234;-79
2021/12/16 13:04:58;;;;;;;34.13;17.37;;;11.50;99.90;;;;;;5117007;28;20252;-79
2021/12/16 13:07:38;;;;;;;37.47;17.47;;;11.50;99.90;;;;;;5116325;28;20679;-80
2021/12/16 13:10:19;;;;;;;36.00;17.27;;;11.50;99.90;;;;;;5119472;28;20665;-78
2021/12/16 13:12:55;;;;;;;36.53;17.10;;;11.50;99.90;;;;;;5129172;28;20217;-78
2021/12/16 13:24:15;;;;;;;36.23;17.27;;;11.40;99.90;;;;;;5122745;28;20215;-79
2021/12/16 13:27:03;;;;;;;34.87;17.10;;;11.40;99.90;;;;;;5103314;28;20659;-80
2021/12/16 13:29:38;;;;;;;32.43;16.57;;;11.40;99.90;;;;;;5104041;28;20211;-80
2021/12/16 13:32:32;;;;;;;35.23;18.27;;;11.40;99.90;;;;;;5121847;28;20222;-78
2021/12/16 13:37:55;;;;;;;41.00;18.43;;;11.40;99.90;;;;;;5124275;28;20199;-78
2021/12/16 13:40:43;;;;;;;40.07;18.97;;;11.40;99.90;;;;;;5127817;28;20183;-79
2021/12/16 13:43:21;;;;;;;36.07;17.87;;;11.40;99.90;;;;;;5105610;28;20229;-81
2021/12/16 13:46:25;;;;;;;34.97;17.30;;;11.40;99.90;;;;;;5122604;28;20211;-81
2021/12/16 14:05:44;;;;;;;34.37;17.27;;;11.10;99.90;;;;;;5102924;28;20207;-77
2021/12/16 14:08:26;;;;;;;34.07;17.50;;;11.10;99.90;;;;;;5083584;28;20203;-79
2021/12/16 14:10:56;;;;;;;35.00;16.63;;;11.10;99.90;;;;;;5085456;28;20199;-79
2021/12/16 14:16:31;;;;;;;37.63;17.83;;;11.00;99.90;;;;;;5107099;28;20210;-80
2021/12/16 14:25:35;;;;;;;35.77;17.97;;;10.90;99.90;;;;;;5106595;28;20560;-79
2021/12/16 14:31:11;;;;;;;43.30;19.80;;;10.90;99.90;;;;;;5099337;28;20192;-79
2021/12/16 14:39:42;;;;;;;43.53;19.30;;;10.70;99.90;;;;;;5103488;28;20305;-78
2021/12/16 14:42:33;;;;;;;42.23;19.57;;;10.70;99.90;;;;;;5101770;28;20679;-78
2021/12/16 14:50:52;;;;;;;41.07;17.87;;;10.50;99.90;;;;;;5100238;28;20260;-78
2021/12/16 14:53:30;;;;;;;47.70;19.80;;;10.40;99.90;;;;;;5088394;28;20286;-81
2021/12/16 14:56:19;;;;;;;43.60;19.07;;;10.40;99.90;;;;;;5100496;28;20263;-81
2021/12/16 14:58:56;;;;;;;44.03;19.63;;;10.40;99.90;;;;;;5082898;28;20727;-81
2021/12/16 15:01:28;;;;;;;45.67;19.33;;;10.20;99.90;;;;;;5102573;28;20187;-79
2021/12/16 15:03:56;;;;;;;49.07;21.20;;;10.20;99.90;;;;;;5104461;28;20314;-78
2021/12/16 15:06:33;;;;;;;46.60;20.43;;;10.20;99.90;;;;;;5105910;28;20623;-78
2021/12/16 15:09:29;;;;;;;46.27;20.57;;;10.20;99.90;;;;;;5109463;28;20298;-79
2021/12/16 15:37:33;;;;;;;53.73;21.53;;;10.00;99.90;;;;;;5104706;28;20199;-80
2021/12/16 15:45:13;;;;;;;60.80;21.83;;;9.90;99.90;;;;;;5103105;28;20282;-79
2021/12/16 15:47:48;;;;;;;59.50;22.17;;;9.90;99.90;;;;;;5103394;28;20337;-79
2021/12/16 15:50:19;;;;;;;57.77;20.17;;;9.90;99.90;;;;;;5101767;28;20201;-81
2021/12/16 15:52:49;;;;;;;55.80;21.07;;;9.80;99.90;;;;;;5100717;28;20230;-79
2021/12/16 15:55:28;;;;;;;63.83;22.30;;;9.90;99.90;;;;;;5112452;28;20204;-79
2021/12/16 15:58:10;;;;;;;58.63;20.97;;;9.90;99.90;;;;;;5079214;28;20218;-78
2021/12/16 16:00:42;;;;;;;66.23;21.97;;;9.90;99.90;;;;;;5082893;28;20235;-78
2021/12/16 16:03:13;;;;;;;62.33;21.87;;;9.90;99.90;;;;;;5069436;28;20224;-80
2021/12/16 16:05:52;;;;;;;65.07;23.50;;;9.90;99.90;;;;;;5076237;28;20682;-78
2021/12/16 16:08:22;;;;;;;69.07;24.43;;;9.90;99.90;;;;;;5064916;28;20516;-79
2021/12/16 16:11:00;;;;;;;69.37;24.17;;;9.80;99.90;;;;;;5079805;28;20204;-78
2021/12/16 16:13:30;;;;;;;86.97;29.05;;;9.80;99.90;;;;;;5061849;28;20849;-78
2021/12/16 16:16:02;;;;;;;74.87;26.20;;;10.00;99.90;;;;;;5068463;28;20667;-80
2021/12/16 16:21:21;;;;;;;75.23;25.43;;;9.90;99.90;;;;;;5077354;28;20213;-80
2021/12/16 16:23:54;;;;;;;80.90;26.17;;;9.90;99.90;;;;;;5075512;28;20200;-80
2021/12/16 16:26:23;;;;;;;92.23;28.63;;;9.90;99.90;;;;;;5081318;28;20212;-80
2021/12/16 16:28:55;;;;;;;72.13;25.20;;;9.90;99.90;;;;;;5075426;28;20691;-80
2021/12/16 16:31:25;;;;;;;82.50;26.60;;;9.90;99.90;;;;;;5082732;28;20239;-80
2021/12/16 16:33:52;;;;;;;90.70;26.33;;;9.90;99.90;;;;;;5087133;28;20382;-80
2021/12/16 16:36:25;;;;;;;94.70;29.13;;;9.90;99.90;;;;;;5086828;28;20210;-80